Pilot No 5 — WDC3840 — position and weather

sailwx.info

Track history (hours):
 
Tides and Currents Weather Stations Pressure Air Temp Water Temp Dewpoint Dewpoint Depression Visibility Wind Speed Wind Dir Waves Ship Positions

Pilot No 5

Owner: P E P INC, FT LAUDERDALE, FL. More information available from US FCC via Universal Licensing System and Coast Guard Vessel Documentation Center.

Last reported at 2016-Sep-25 16:28 UTC. Time now 2016-Sep-25 19:05 UTC.
Position N 26°06' W 080°07'.

Length 6 m.

Type: Pilot. MMSI: 367015090.

Date/timePositionNaut miles runAvg speedWind from/ knotsBaromVisibWave heightAir tempDewpointWater temp
2016-Sep-25 16:28N 26°06' W 080°07'3 3.7
2016-Sep-25 15:33N 26°05' W 080°04'3 2.6
2016-Sep-25 14:33N 26°06' W 080°07'2 1.0
2016-Sep-25 12:33N 26°06' W 080°04'3 2.8
2016-Sep-25 11:33N 26°04' W 080°07'2 0.2
2016-Sep-25 00:24N 26°06' W 080°07'0 0.2
2016-Sep-24 22:33N 26°06' W 080°07'0 0.4
2016-Sep-24 21:33N 26°05' W 080°07'1 0.3
2016-Sep-24 19:33N 26°05' W 080°07'1 0.3
2016-Sep-24 14:33N 26°06' W 080°07'0 0.0
2016-Sep-24 10:33N 26°06' W 080°07'1 0.8
2016-Sep-24 09:33N 26°06' W 080°07'1 0.1
2016-Sep-24 03:28N 26°06' W 080°07'1 0.7
2016-Sep-24 02:33N 26°06' W 080°07'3 2.6
2016-Sep-24 01:33N 26°06' W 080°04'1 0.2
2016-Sep-23 19:33N 26°06' W 080°03'4 1.8
2016-Sep-23 17:24N 26°06' W 080°07'2 2.3
2016-Sep-23 16:33N 26°06' W 080°05'2 1.6
2016-Sep-23 15:33N 26°05' W 080°07'1 0.5
2016-Sep-23 13:33N 26°06' W 080°06'1 0.1
2016-Sep-23 03:34N 26°05' W 080°07'1 1.0
2016-Sep-23 02:33N 26°06' W 080°07'4 3.7
2016-Sep-23 01:33N 26°06' W 080°03'4 3.9
2016-Sep-23 00:33N 26°06' W 080°07'0 0.3
2016-Sep-22 23:33N 26°06' W 080°07'1 0.1
2016-Sep-22 12:33N 26°06' W 080°07'0 0.0
2016-Sep-21 23:33N 26°06' W 080°07'4 3.9
2016-Sep-21 22:33N 26°06' W 080°03'4 1.3
2016-Sep-21 19:33N 26°05' W 080°07'1 0.3
2016-Sep-21 16:33N 26°06' W 080°07'0 0.0
2016-Sep-20 14:18N 26°06' W 080°07'3 3.4
2016-Sep-20 13:33N 26°06' W 080°05'  
Track history (hours):
 
Tides and Currents Weather Stations Pressure Air Temp Water Temp Dewpoint Dewpoint Depression Visibility Wind Speed Wind Dir Waves Ship Positions

Pilot No 5

Owner: P E P INC, FT LAUDERDALE, FL. More information available from US FCC via Universal Licensing System and Coast Guard Vessel Documentation Center.

Last reported at 2016-Sep-25 16:28 UTC. Time now 2016-Sep-25 19:05 UTC.
Position N 26°06' W 080°07'.

Length 6 m.

Type: Pilot. MMSI: 367015090.

Date/timePositionNaut miles runAvg speedWind from/ knotsBaromVisibWave heightAir tempDewpointWater temp
2016-Sep-25 16:28N 26°06' W 080°07'3 3.7
2016-Sep-25 15:33N 26°05' W 080°04'3 2.6
2016-Sep-25 14:33N 26°06' W 080°07'2 1.0
2016-Sep-25 12:33N 26°06' W 080°04'3 2.8
2016-Sep-25 11:33N 26°04' W 080°07'2 0.2
2016-Sep-25 00:24N 26°06' W 080°07'0 0.2
2016-Sep-24 22:33N 26°06' W 080°07'0 0.4
2016-Sep-24 21:33N 26°05' W 080°07'1 0.3
2016-Sep-24 19:33N 26°05' W 080°07'1 0.3
2016-Sep-24 14:33N 26°06' W 080°07'0 0.0
2016-Sep-24 10:33N 26°06' W 080°07'1 0.8
2016-Sep-24 09:33N 26°06' W 080°07'1 0.1
2016-Sep-24 03:28N 26°06' W 080°07'1 0.7
2016-Sep-24 02:33N 26°06' W 080°07'3 2.6
2016-Sep-24 01:33N 26°06' W 080°04'1 0.2
2016-Sep-23 19:33N 26°06' W 080°03'4 1.8
2016-Sep-23 17:24N 26°06' W 080°07'2 2.3
2016-Sep-23 16:33N 26°06' W 080°05'2 1.6
2016-Sep-23 15:33N 26°05' W 080°07'1 0.5
2016-Sep-23 13:33N 26°06' W 080°06'1 0.1
2016-Sep-23 03:34N 26°05' W 080°07'1 1.0
2016-Sep-23 02:33N 26°06' W 080°07'4 3.7
2016-Sep-23 01:33N 26°06' W 080°03'4 3.9
2016-Sep-23 00:33N 26°06' W 080°07'0 0.3
2016-Sep-22 23:33N 26°06' W 080°07'1 0.1
2016-Sep-22 12:33N 26°06' W 080°07'0 0.0
2016-Sep-21 23:33N 26°06' W 080°07'4 3.9
2016-Sep-21 22:33N 26°06' W 080°03'4 1.3
2016-Sep-21 19:33N 26°05' W 080°07'1 0.3
2016-Sep-21 16:33N 26°06' W 080°07'0 0.0
2016-Sep-20 14:18N 26°06' W 080°07'3 3.4
2016-Sep-20 13:33N 26°06' W 080°05'  

Dump ship's entire track history